sensor_id;sensor_type;location;lat;lon;timestamp;temperature;humidity
23122;DHT22;11730;51.248;22.534;2022-08-21T00:00:14;20.80;99.90
23122;DHT22;11730;51.248;22.534;2022-08-21T00:02:57;20.80;99.90
23122;DHT22;11730;51.248;22.534;2022-08-21T00:05:26;20.70;99.90
23122;DHT22;11730;51.248;22.534;2022-08-21T00:07:53;20.60;99.90
23122;DHT22;11730;51.248;22.534;2022-08-21T00:10:21;20.60;99.90
23122;DHT22;11730;51.248;22.534;2022-08-21T00:12:48;20.50;99.90
23122;DHT22;11730;51.248;22.534;2022-08-21T00:15:22;20.60;99.90
23122;DHT22;11730;51.248;22.534;2022-08-21T00:17:50;20.70;99.90
23122;DHT22;11730;51.248;22.534;2022-08-21T00:20:17;20.60;99.90
23122;DHT22;11730;51.248;22.534;2022-08-21T00:22:44;20.50;99.90
23122;DHT22;11730;51.248;22.534;2022-08-21T00:25:13;20.50;99.90
23122;DHT22;11730;51.248;22.534;2022-08-21T00:27:41;20.50;99.90
23122;DHT22;11730;51.248;22.534;2022-08-21T00:30:11;20.50;99.90
23122;DHT22;11730;51.248;22.534;2022-08-21T00:32:49;20.50;99.90
23122;DHT22;11730;51.248;22.534;2022-08-21T00:35:18;20.40;99.90
23122;DHT22;11730;51.248;22.534;2022-08-21T00:37:46;20.50;99.90
23122;DHT22;11730;51.248;22.534;2022-08-21T00:40:16;20.40;99.90
23122;DHT22;11730;51.248;22.534;2022-08-21T00:42:43;20.30;99.90
23122;DHT22;11730;51.248;22.534;2022-08-21T00:45:20;20.30;99.90
23122;DHT22;11730;51.248;22.534;2022-08-21T00:47:48;20.10;99.90
23122;DHT22;11730;51.248;22.534;2022-08-21T00:50:15;20.30;99.90
23122;DHT22;11730;51.248;22.534;2022-08-21T00:52:50;20.20;99.90
23122;DHT22;11730;51.248;22.534;2022-08-21T00:55:19;20.20;99.90
23122;DHT22;11730;51.248;22.534;2022-08-21T00:57:52;20.20;99.90
23122;DHT22;11730;51.248;22.534;2022-08-21T01:00:27;20.20;99.90
23122;DHT22;11730;51.248;22.534;2022-08-21T01:02:56;20.20;99.90
23122;DHT22;11730;51.248;22.534;2022-08-21T01:05:24;20.20;99.90
23122;DHT22;11730;51.248;22.534;2022-08-21T01:07:51;20.10;99.90
23122;DHT22;11730;51.248;22.534;2022-08-21T01:10:19;20.10;99.90
23122;DHT22;11730;51.248;22.534;2022-08-21T01:12:52;20.20;99.90
23122;DHT22;11730;51.248;22.534;2022-08-21T01:15:23;20.10;99.90
23122;DHT22;11730;51.248;22.534;2022-08-21T01:17:51;20.10;99.90
23122;DHT22;11730;51.248;22.534;2022-08-21T01:20:18;20.10;99.90
23122;DHT22;11730;51.248;22.534;2022-08-21T01:22:45;20.00;99.90
23122;DHT22;11730;51.248;22.534;2022-08-21T01:25:15;19.90;99.90
23122;DHT22;11730;51.248;22.534;2022-08-21T01:27:43;19.70;99.90
23122;DHT22;11730;51.248;22.534;2022-08-21T01:32:39;19.80;99.90
23122;DHT22;11730;51.248;22.534;2022-08-21T01:35:06;19.90;99.90
23122;DHT22;11730;51.248;22.534;2022-08-21T01:37:34;19.90;99.90
23122;DHT22;11730;51.248;22.534;2022-08-21T01:40:03;20.00;99.90
23122;DHT22;11730;51.248;22.534;2022-08-21T01:42:31;19.90;99.90
23122;DHT22;11730;51.248;22.534;2022-08-21T01:44:58;19.80;99.90
23122;DHT22;11730;51.248;22.534;2022-08-21T01:47:25;19.70;99.90
23122;DHT22;11730;51.248;22.534;2022-08-21T01:49:52;19.70;99.90
23122;DHT22;11730;51.248;22.534;2022-08-21T01:52:19;19.60;99.90
23122;DHT22;11730;51.248;22.534;2022-08-21T01:54:46;19.70;99.90
23122;DHT22;11730;51.248;22.534;2022-08-21T01:57:22;19.70;99.90
23122;DHT22;11730;51.248;22.534;2022-08-21T01:59:52;19.50;99.90
23122;DHT22;11730;51.248;22.534;2022-08-21T02:02:19;19.50;99.90
23122;DHT22;11730;51.248;22.534;2022-08-21T02:04:46;19.60;99.90
23122;DHT22;11730;51.248;22.534;2022-08-21T02:07:14;19.60;99.90
23122;DHT22;11730;51.248;22.534;2022-08-21T02:09:42;19.50;99.90
23122;DHT22;11730;51.248;22.534;2022-08-21T02:12:10;19.50;99.90
23122;DHT22;11730;51.248;22.534;2022-08-21T02:14:38;19.50;99.90
23122;DHT22;11730;51.248;22.534;2022-08-21T02:17:05;19.40;99.90
23122;DHT22;11730;51.248;22.534;2022-08-21T02:19:37;19.50;99.90
23122;DHT22;11730;51.248;22.534;2022-08-21T02:22:10;19.50;99.90
23122;DHT22;11730;51.248;22.534;2022-08-21T02:24:37;19.40;99.90
23122;DHT22;11730;51.248;22.534;2022-08-21T02:27:21;19.40;99.90
23122;DHT22;11730;51.248;22.534;2022-08-21T02:29:56;19.40;99.90
23122;DHT22;11730;51.248;22.534;2022-08-21T02:32:25;19.30;99.90
23122;DHT22;11730;51.248;22.534;2022-08-21T02:34:52;19.30;99.90
23122;DHT22;11730;51.248;22.534;2022-08-21T02:37:20;19.20;99.90
23122;DHT22;11730;51.248;22.534;2022-08-21T02:39:47;19.20;99.90
23122;DHT22;11730;51.248;22.534;2022-08-21T02:42:14;19.20;99.90
23122;DHT22;11730;51.248;22.534;2022-08-21T02:44:42;19.00;99.90
23122;DHT22;11730;51.248;22.534;2022-08-21T02:47:09;18.90;99.90
23122;DHT22;11730;51.248;22.534;2022-08-21T02:49:35;19.00;99.90
23122;DHT22;11730;51.248;22.534;2022-08-21T02:52:02;18.90;99.90
23122;DHT22;11730;51.248;22.534;2022-08-21T02:54:32;18.90;99.90
23122;DHT22;11730;51.248;22.534;2022-08-21T02:57:00;18.70;99.90
23122;DHT22;11730;51.248;22.534;2022-08-21T02:59:26;18.70;99.90
23122;DHT22;11730;51.248;22.534;2022-08-21T03:01:53;18.70;99.90
23122;DHT22;11730;51.248;22.534;2022-08-21T03:04:22;18.70;99.90
23122;DHT22;11730;51.248;22.534;2022-08-21T03:06:49;18.70;99.90
23122;DHT22;11730;51.248;22.534;2022-08-21T03:09:16;18.60;99.90
23122;DHT22;11730;51.248;22.534;2022-08-21T03:11:42;18.60;99.90
23122;DHT22;11730;51.248;22.534;2022-08-21T03:14:10;18.60;99.90
23122;DHT22;11730;51.248;22.534;2022-08-21T03:16:37;18.50;99.90
23122;DHT22;11730;51.248;22.534;2022-08-21T03:19:04;18.50;99.90
23122;DHT22;11730;51.248;22.534;2022-08-21T03:21:31;18.40;99.90
23122;DHT22;11730;51.248;22.534;2022-08-21T03:23:58;18.40;99.90
23122;DHT22;11730;51.248;22.534;2022-08-21T03:26:30;18.40;99.90
23122;DHT22;11730;51.248;22.534;2022-08-21T03:28:58;18.50;99.90
23122;DHT22;11730;51.248;22.534;2022-08-21T03:31:25;18.50;99.90
23122;DHT22;11730;51.248;22.534;2022-08-21T03:33:57;18.30;99.90
23122;DHT22;11730;51.248;22.534;2022-08-21T03:36:25;18.20;99.90
23122;DHT22;11730;51.248;22.534;2022-08-21T03:38:53;18.30;99.90
23122;DHT22;11730;51.248;22.534;2022-08-21T03:41:20;18.20;99.90
23122;DHT22;11730;51.248;22.534;2022-08-21T03:43:47;18.30;99.90
23122;DHT22;11730;51.248;22.534;2022-08-21T03:46:14;18.20;99.90
23122;DHT22;11730;51.248;22.534;2022-08-21T03:48:41;18.20;99.90
23122;DHT22;11730;51.248;22.534;2022-08-21T03:51:08;18.10;99.90
23122;DHT22;11730;51.248;22.534;2022-08-21T03:53:35;18.20;99.90
23122;DHT22;11730;51.248;22.534;2022-08-21T03:56:03;18.30;99.90
23122;DHT22;11730;51.248;22.534;2022-08-21T03:58:30;18.20;99.90
23122;DHT22;11730;51.248;22.534;2022-08-21T04:01:00;18.10;99.90
23122;DHT22;11730;51.248;22.534;2022-08-21T04:03:27;18.20;99.90
23122;DHT22;11730;51.248;22.534;2022-08-21T04:05:55;18.30;99.90
23122;DHT22;11730;51.248;22.534;2022-08-21T04:08:22;18.40;99.90
23122;DHT22;11730;51.248;22.534;2022-08-21T04:10:51;18.40;99.90
23122;DHT22;11730;51.248;22.534;2022-08-21T04:13:20;18.40;99.90
23122;DHT22;11730;51.248;22.534;2022-08-21T04:15:47;18.40;99.90
23122;DHT22;11730;51.248;22.534;2022-08-21T04:18:14;18.40;99.90
23122;DHT22;11730;51.248;22.534;2022-08-21T04:20:43;18.40;99.90
23122;DHT22;11730;51.248;22.534;2022-08-21T04:23:17;18.40;99.90
23122;DHT22;11730;51.248;22.534;2022-08-21T04:25:51;18.50;99.90
23122;DHT22;11730;51.248;22.534;2022-08-21T04:28:18;18.50;99.90
23122;DHT22;11730;51.248;22.534;2022-08-21T04:30:45;18.40;99.90
23122;DHT22;11730;51.248;22.534;2022-08-21T04:33:13;18.50;99.90
23122;DHT22;11730;51.248;22.534;2022-08-21T04:35:40;18.60;99.90
23122;DHT22;11730;51.248;22.534;2022-08-21T04:38:08;18.70;99.90
23122;DHT22;11730;51.248;22.534;2022-08-21T04:40:35;18.80;99.90
23122;DHT22;11730;51.248;22.534;2022-08-21T04:43:05;18.80;99.90
23122;DHT22;11730;51.248;22.534;2022-08-21T04:45:35;18.80;99.90
23122;DHT22;11730;51.248;22.534;2022-08-21T04:48:06;18.80;99.90
23122;DHT22;11730;51.248;22.534;2022-08-21T04:50:47;18.90;99.90
23122;DHT22;11730;51.248;22.534;2022-08-21T04:53:21;18.90;99.90
23122;DHT22;11730;51.248;22.534;2022-08-21T04:55:50;18.90;99.90
23122;DHT22;11730;51.248;22.534;2022-08-21T04:58:20;18.90;99.90
23122;DHT22;11730;51.248;22.534;2022-08-21T05:00:48;19.00;99.90
23122;DHT22;11730;51.248;22.534;2022-08-21T05:03:16;19.10;99.90
23122;DHT22;11730;51.248;22.534;2022-08-21T05:05:44;19.20;99.90
23122;DHT22;11730;51.248;22.534;2022-08-21T05:08:14;19.10;99.90
23122;DHT22;11730;51.248;22.534;2022-08-21T05:10:42;19.10;99.90
23122;DHT22;11730;51.248;22.534;2022-08-21T05:13:12;19.10;99.90
23122;DHT22;11730;51.248;22.534;2022-08-21T05:15:40;19.10;99.90
23122;DHT22;11730;51.248;22.534;2022-08-21T05:18:08;19.10;99.90
23122;DHT22;11730;51.248;22.534;2022-08-21T05:20:36;19.20;99.90
23122;DHT22;11730;51.248;22.534;2022-08-21T05:23:08;19.20;99.90
23122;DHT22;11730;51.248;22.534;2022-08-21T05:25:36;19.40;99.90
23122;DHT22;11730;51.248;22.534;2022-08-21T05:28:04;19.50;99.90
23122;DHT22;11730;51.248;22.534;2022-08-21T05:30:32;19.50;99.90
23122;DHT22;11730;51.248;22.534;2022-08-21T05:33:01;19.50;99.90
23122;DHT22;11730;51.248;22.534;2022-08-21T05:35:29;19.60;99.90
23122;DHT22;11730;51.248;22.534;2022-08-21T05:37:57;19.70;99.90
23122;DHT22;11730;51.248;22.534;2022-08-21T05:40:25;19.70;99.90
23122;DHT22;11730;51.248;22.534;2022-08-21T05:42:53;19.80;99.90
23122;DHT22;11730;51.248;22.534;2022-08-21T05:45:26;19.80;99.90
23122;DHT22;11730;51.248;22.534;2022-08-21T05:48:17;19.90;99.90
23122;DHT22;11730;51.248;22.534;2022-08-21T05:50:46;19.80;99.90
23122;DHT22;11730;51.248;22.534;2022-08-21T05:53:15;20.00;99.90
23122;DHT22;11730;51.248;22.534;2022-08-21T05:55:43;20.00;99.90
23122;DHT22;11730;51.248;22.534;2022-08-21T05:58:17;20.00;99.90
23122;DHT22;11730;51.248;22.534;2022-08-21T06:00:46;20.10;99.90
23122;DHT22;11730;51.248;22.534;2022-08-21T06:03:23;20.20;99.90
23122;DHT22;11730;51.248;22.534;2022-08-21T06:05:51;20.30;99.90
23122;DHT22;11730;51.248;22.534;2022-08-21T06:08:20;20.50;99.90
23122;DHT22;11730;51.248;22.534;2022-08-21T06:10:48;20.60;99.90
23122;DHT22;11730;51.248;22.534;2022-08-21T06:13:16;20.70;99.90
23122;DHT22;11730;51.248;22.534;2022-08-21T06:15:44;20.80;99.90
23122;DHT22;11730;51.248;22.534;2022-08-21T06:18:11;20.70;99.90
23122;DHT22;11730;51.248;22.534;2022-08-21T06:20:38;20.70;99.90
23122;DHT22;11730;51.248;22.534;2022-08-21T06:23:06;20.90;99.90
23122;DHT22;11730;51.248;22.534;2022-08-21T06:25:33;21.00;99.90
23122;DHT22;11730;51.248;22.534;2022-08-21T06:28:08;21.00;99.90
23122;DHT22;11730;51.248;22.534;2022-08-21T06:30:37;21.10;99.90
23122;DHT22;11730;51.248;22.534;2022-08-21T06:33:05;21.10;99.90
23122;DHT22;11730;51.248;22.534;2022-08-21T06:35:34;21.10;99.90
23122;DHT22;11730;51.248;22.534;2022-08-21T06:40:31;21.30;99.90
23122;DHT22;11730;51.248;22.534;2022-08-21T06:43:09;21.30;99.90
23122;DHT22;11730;51.248;22.534;2022-08-21T06:45:40;21.20;99.90
23122;DHT22;11730;51.248;22.534;2022-08-21T06:48:07;21.40;99.90
23122;DHT22;11730;51.248;22.534;2022-08-21T06:50:35;21.50;99.90
23122;DHT22;11730;51.248;22.534;2022-08-21T06:53:11;21.70;99.90
23122;DHT22;11730;51.248;22.534;2022-08-21T06:55:39;21.90;99.90
23122;DHT22;11730;51.248;22.534;2022-08-21T06:58:07;22.10;99.90
23122;DHT22;11730;51.248;22.534;2022-08-21T07:00:35;22.30;99.90
23122;DHT22;11730;51.248;22.534;2022-08-21T07:03:02;22.40;99.90
23122;DHT22;11730;51.248;22.534;2022-08-21T07:05:30;22.60;99.90
23122;DHT22;11730;51.248;22.534;2022-08-21T07:07:58;22.80;99.90
23122;DHT22;11730;51.248;22.534;2022-08-21T07:10:26;23.20;99.90
23122;DHT22;11730;51.248;22.534;2022-08-21T07:12:53;23.40;99.90
23122;DHT22;11730;51.248;22.534;2022-08-21T07:15:28;23.30;99.90
23122;DHT22;11730;51.248;22.534;2022-08-21T07:17:57;23.70;99.90
23122;DHT22;11730;51.248;22.534;2022-08-21T07:20:24;23.90;99.90
23122;DHT22;11730;51.248;22.534;2022-08-21T07:22:51;24.10;99.90
23122;DHT22;11730;51.248;22.534;2022-08-21T07:25:18;24.30;99.90
23122;DHT22;11730;51.248;22.534;2022-08-21T07:27:46;24.80;99.90
23122;DHT22;11730;51.248;22.534;2022-08-21T07:30:13;24.50;99.90
23122;DHT22;11730;51.248;22.534;2022-08-21T07:32:40;24.70;99.90
23122;DHT22;11730;51.248;22.534;2022-08-21T07:35:07;25.10;99.90
23122;DHT22;11730;51.248;22.534;2022-08-21T07:37:34;25.90;99.90
23122;DHT22;11730;51.248;22.534;2022-08-21T07:40:02;25.70;99.90
23122;DHT22;11730;51.248;22.534;2022-08-21T07:42:29;25.90;99.90
23122;DHT22;11730;51.248;22.534;2022-08-21T07:44:56;26.70;99.90
23122;DHT22;11730;51.248;22.534;2022-08-21T07:47:23;27.00;99.90
23122;DHT22;11730;51.248;22.534;2022-08-21T07:50:11;26.60;99.90
23122;DHT22;11730;51.248;22.534;2022-08-21T07:52:40;27.10;99.90
23122;DHT22;11730;51.248;22.534;2022-08-21T07:55:09;27.20;99.90
23122;DHT22;11730;51.248;22.534;2022-08-21T07:57:37;26.90;99.90
23122;DHT22;11730;51.248;22.534;2022-08-21T08:00:08;26.70;99.90
23122;DHT22;11730;51.248;22.534;2022-08-21T08:02:36;26.40;99.90
23122;DHT22;11730;51.248;22.534;2022-08-21T08:05:05;26.40;99.90
23122;DHT22;11730;51.248;22.534;2022-08-21T08:07:32;26.80;99.90
23122;DHT22;11730;51.248;22.534;2022-08-21T08:10:00;27.20;99.90
23122;DHT22;11730;51.248;22.534;2022-08-21T08:12:27;26.80;99.90
23122;DHT22;11730;51.248;22.534;2022-08-21T08:14:59;26.60;99.90
23122;DHT22;11730;51.248;22.534;2022-08-21T08:17:27;27.10;99.90
23122;DHT22;11730;51.248;22.534;2022-08-21T08:19:54;27.10;99.90
23122;DHT22;11730;51.248;22.534;2022-08-21T08:22:23;26.50;99.90
23122;DHT22;11730;51.248;22.534;2022-08-21T08:24:51;26.50;99.90
23122;DHT22;11730;51.248;22.534;2022-08-21T08:27:20;26.20;99.90
23122;DHT22;11730;51.248;22.534;2022-08-21T08:29:47;26.30;99.90
23122;DHT22;11730;51.248;22.534;2022-08-21T08:32:14;26.40;99.90
23122;DHT22;11730;51.248;22.534;2022-08-21T08:34:41;26.40;99.90
23122;DHT22;11730;51.248;22.534;2022-08-21T08:37:09;26.50;99.90
23122;DHT22;11730;51.248;22.534;2022-08-21T08:39:39;26.40;99.90
23122;DHT22;11730;51.248;22.534;2022-08-21T08:42:31;26.40;99.90
23122;DHT22;11730;51.248;22.534;2022-08-21T08:45:10;26.60;99.90
23122;DHT22;11730;51.248;22.534;2022-08-21T08:47:47;26.80;99.90
23122;DHT22;11730;51.248;22.534;2022-08-21T08:53:16;27.90;99.30
23122;DHT22;11730;51.248;22.534;2022-08-21T08:55:45;28.10;99.10
23122;DHT22;11730;51.248;22.534;2022-08-21T08:58:20;27.90;97.80
23122;DHT22;11730;51.248;22.534;2022-08-21T09:00:51;28.00;98.90
23122;DHT22;11730;51.248;22.534;2022-08-21T09:03:25;28.00;97.60
23122;DHT22;11730;51.248;22.534;2022-08-21T09:22:39;28.60;95.70
23122;DHT22;11730;51.248;22.534;2022-08-21T09:24:58;29.00;95.40
23122;DHT22;11730;51.248;22.534;2022-08-21T09:27:32;29.10;95.00
23122;DHT22;11730;51.248;22.534;2022-08-21T09:30:02;29.10;94.70
23122;DHT22;11730;51.248;22.534;2022-08-21T09:32:31;28.80;94.50
23122;DHT22;11730;51.248;22.534;2022-08-21T09:35:13;29.30;94.80
23122;DHT22;11730;51.248;22.534;2022-08-21T09:40:43;30.00;92.50
23122;DHT22;11730;51.248;22.534;2022-08-21T09:43:18;30.60;91.80
23122;DHT22;11730;51.248;22.534;2022-08-21T09:45:47;30.10;91.60
23122;DHT22;11730;51.248;22.534;2022-08-21T09:48:20;30.50;91.50
23122;DHT22;11730;51.248;22.534;2022-08-21T09:50:53;29.80;90.70
23122;DHT22;11730;51.248;22.534;2022-08-21T09:53:26;30.10;90.90
23122;DHT22;11730;51.248;22.534;2022-08-21T09:56:04;30.10;90.90
23122;DHT22;11730;51.248;22.534;2022-08-21T09:58:51;30.40;90.90
23122;DHT22;11730;51.248;22.534;2022-08-21T10:01:24;31.10;87.50
23122;DHT22;11730;51.248;22.534;2022-08-21T10:04:08;30.10;89.60
23122;DHT22;11730;51.248;22.534;2022-08-21T10:06:34;30.00;88.90
23122;DHT22;11730;51.248;22.534;2022-08-21T10:09:13;29.80;88.90
23122;DHT22;11730;51.248;22.534;2022-08-21T10:12:06;30.50;89.90
23122;DHT22;11730;51.248;22.534;2022-08-21T10:15:08;31.30;88.30
23122;DHT22;11730;51.248;22.534;2022-08-21T10:18:32;31.50;87.60
23122;DHT22;11730;51.248;22.534;2022-08-21T10:20:49;31.60;84.80
23122;DHT22;11730;51.248;22.534;2022-08-21T10:26:17;29.50;89.30
23122;DHT22;11730;51.248;22.534;2022-08-21T10:57:18;33.90;78.20
23122;DHT22;11730;51.248;22.534;2022-08-21T11:00:05;33.80;76.40
23122;DHT22;11730;51.248;22.534;2022-08-21T11:02:55;34.70;75.50
23122;DHT22;11730;51.248;22.534;2022-08-21T11:05:38;33.80;74.20
23122;DHT22;11730;51.248;22.534;2022-08-21T11:08:08;34.10;75.60
23122;DHT22;11730;51.248;22.534;2022-08-21T11:10:42;34.60;73.70
23122;DHT22;11730;51.248;22.534;2022-08-21T11:13:45;34.60;71.60
23122;DHT22;11730;51.248;22.534;2022-08-21T11:18:56;35.10;69.20
23122;DHT22;11730;51.248;22.534;2022-08-21T11:24:32;33.50;74.00
23122;DHT22;11730;51.248;22.534;2022-08-21T11:27:13;34.00;72.30
23122;DHT22;11730;51.248;22.534;2022-08-21T11:29:51;32.80;72.80
23122;DHT22;11730;51.248;22.534;2022-08-21T11:43:40;34.20;72.60
23122;DHT22;11730;51.248;22.534;2022-08-21T11:51:41;34.60;67.80
23122;DHT22;11730;51.248;22.534;2022-08-21T11:54:32;33.40;69.70
23122;DHT22;11730;51.248;22.534;2022-08-21T12:02:26;32.80;72.30
23122;DHT22;11730;51.248;22.534;2022-08-21T12:04:59;32.20;73.30
23122;DHT22;11730;51.248;22.534;2022-08-21T12:07:40;30.90;74.00
23122;DHT22;11730;51.248;22.534;2022-08-21T12:10:17;31.50;76.10
23122;DHT22;11730;51.248;22.534;2022-08-21T12:12:47;31.70;74.00
23122;DHT22;11730;51.248;22.534;2022-08-21T12:15:26;31.30;75.70
23122;DHT22;11730;51.248;22.534;2022-08-21T12:18:03;30.30;77.30
23122;DHT22;11730;51.248;22.534;2022-08-21T12:25:42;29.20;79.90
23122;DHT22;11730;51.248;22.534;2022-08-21T12:28:13;29.00;81.20
23122;DHT22;11730;51.248;22.534;2022-08-21T12:30:45;28.80;81.30
23122;DHT22;11730;51.248;22.534;2022-08-21T12:36:04;28.10;83.80
23122;DHT22;11730;51.248;22.534;2022-08-21T12:38:49;28.30;82.90
23122;DHT22;11730;51.248;22.534;2022-08-21T12:41:42;28.10;85.00
23122;DHT22;11730;51.248;22.534;2022-08-21T12:44:14;28.60;83.40
23122;DHT22;11730;51.248;22.534;2022-08-21T12:47:14;28.50;84.00
23122;DHT22;11730;51.248;22.534;2022-08-21T12:49:51;28.20;83.80
23122;DHT22;11730;51.248;22.534;2022-08-21T12:52:28;28.40;82.60
23122;DHT22;11730;51.248;22.534;2022-08-21T12:54:55;28.40;83.60
23122;DHT22;11730;51.248;22.534;2022-08-21T12:57:28;28.30;83.90
23122;DHT22;11730;51.248;22.534;2022-08-21T13:00:03;28.30;83.70
23122;DHT22;11730;51.248;22.534;2022-08-21T13:02:41;27.70;84.10
23122;DHT22;11730;51.248;22.534;2022-08-21T13:05:14;28.60;85.30
23122;DHT22;11730;51.248;22.534;2022-08-21T13:07:47;29.80;84.40
23122;DHT22;11730;51.248;22.534;2022-08-21T13:10:26;30.40;81.40
23122;DHT22;11730;51.248;22.534;2022-08-21T13:12:57;31.20;77.60
23122;DHT22;11730;51.248;22.534;2022-08-21T13:15:32;31.30;76.40
23122;DHT22;11730;51.248;22.534;2022-08-21T13:18:01;31.10;77.40
23122;DHT22;11730;51.248;22.534;2022-08-21T13:20:32;31.00;77.60
23122;DHT22;11730;51.248;22.534;2022-08-21T13:23:01;30.70;77.70
23122;DHT22;11730;51.248;22.534;2022-08-21T13:25:35;30.70;76.90
23122;DHT22;11730;51.248;22.534;2022-08-21T13:28:10;30.90;77.30
23122;DHT22;11730;51.248;22.534;2022-08-21T13:30:56;30.80;77.50
23122;DHT22;11730;51.248;22.534;2022-08-21T13:33:25;31.10;76.70
23122;DHT22;11730;51.248;22.534;2022-08-21T13:36:13;31.60;75.50
23122;DHT22;11730;51.248;22.534;2022-08-21T13:38:42;31.50;76.70
23122;DHT22;11730;51.248;22.534;2022-08-21T13:41:22;31.20;76.10
23122;DHT22;11730;51.248;22.534;2022-08-21T13:44:02;30.70;78.10
23122;DHT22;11730;51.248;22.534;2022-08-21T13:46:34;31.00;77.70
23122;DHT22;11730;51.248;22.534;2022-08-21T13:49:03;30.70;76.90
23122;DHT22;11730;51.248;22.534;2022-08-21T13:51:32;31.00;76.80
23122;DHT22;11730;51.248;22.534;2022-08-21T13:54:00;31.90;75.70
23122;DHT22;11730;51.248;22.534;2022-08-21T13:56:40;31.80;76.20
23122;DHT22;11730;51.248;22.534;2022-08-21T13:59:08;32.20;73.70
23122;DHT22;11730;51.248;22.534;2022-08-21T14:01:48;32.70;73.70
23122;DHT22;11730;51.248;22.534;2022-08-21T14:04:23;32.90;72.90
23122;DHT22;11730;51.248;22.534;2022-08-21T14:06:51;33.40;72.00
23122;DHT22;11730;51.248;22.534;2022-08-21T14:09:39;33.00;71.00
23122;DHT22;11730;51.248;22.534;2022-08-21T14:12:19;32.20;72.20
23122;DHT22;11730;51.248;22.534;2022-08-21T14:14:51;32.20;72.70
23122;DHT22;11730;51.248;22.534;2022-08-21T14:17:31;32.20;72.60
23122;DHT22;11730;51.248;22.534;2022-08-21T14:19:59;31.10;74.40
23122;DHT22;11730;51.248;22.534;2022-08-21T14:27:54;30.90;73.90
23122;DHT22;11730;51.248;22.534;2022-08-21T14:30:34;31.10;75.50
23122;DHT22;11730;51.248;22.534;2022-08-21T14:33:03;31.30;74.60
23122;DHT22;11730;51.248;22.534;2022-08-21T14:35:30;31.70;74.20
23122;DHT22;11730;51.248;22.534;2022-08-21T14:37:57;31.90;73.90
23122;DHT22;11730;51.248;22.534;2022-08-21T14:40:25;31.90;73.90
23122;DHT22;11730;51.248;22.534;2022-08-21T14:42:52;32.00;73.30
23122;DHT22;11730;51.248;22.534;2022-08-21T14:45:26;32.00;72.20
23122;DHT22;11730;51.248;22.534;2022-08-21T14:47:54;32.00;72.00
23122;DHT22;11730;51.248;22.534;2022-08-21T14:50:21;31.80;73.70
23122;DHT22;11730;51.248;22.534;2022-08-21T14:52:49;31.10;73.30
23122;DHT22;11730;51.248;22.534;2022-08-21T14:55:17;31.30;73.40
23122;DHT22;11730;51.248;22.534;2022-08-21T14:57:49;31.20;72.80
23122;DHT22;11730;51.248;22.534;2022-08-21T15:00:18;30.80;74.50
23122;DHT22;11730;51.248;22.534;2022-08-21T15:02:46;31.00;74.40
23122;DHT22;11730;51.248;22.534;2022-08-21T15:05:15;30.30;74.70
23122;DHT22;11730;51.248;22.534;2022-08-21T15:07:58;31.10;74.00
23122;DHT22;11730;51.248;22.534;2022-08-21T15:10:25;31.30;73.00
23122;DHT22;11730;51.248;22.534;2022-08-21T15:12:52;31.30;72.60
23122;DHT22;11730;51.248;22.534;2022-08-21T15:15:19;31.00;73.60
23122;DHT22;11730;51.248;22.534;2022-08-21T15:17:46;30.60;73.60
23122;DHT22;11730;51.248;22.534;2022-08-21T15:20:14;30.10;74.50
23122;DHT22;11730;51.248;22.534;2022-08-21T15:22:41;29.00;76.40
23122;DHT22;11730;51.248;22.534;2022-08-21T15:25:13;28.00;77.90
23122;DHT22;11730;51.248;22.534;2022-08-21T15:27:40;27.40;80.50
23122;DHT22;11730;51.248;22.534;2022-08-21T15:30:07;27.50;80.50
23122;DHT22;11730;51.248;22.534;2022-08-21T15:32:34;27.40;80.70
23122;DHT22;11730;51.248;22.534;2022-08-21T15:35:01;27.30;80.70
23122;DHT22;11730;51.248;22.534;2022-08-21T15:37:29;27.40;81.30
23122;DHT22;11730;51.248;22.534;2022-08-21T15:39:56;27.20;81.50
23122;DHT22;11730;51.248;22.534;2022-08-21T15:42:24;27.30;82.50
23122;DHT22;11730;51.248;22.534;2022-08-21T15:44:54;27.30;82.40
23122;DHT22;11730;51.248;22.534;2022-08-21T15:47:25;27.10;82.90
23122;DHT22;11730;51.248;22.534;2022-08-21T15:49:54;27.40;82.40
23122;DHT22;11730;51.248;22.534;2022-08-21T15:52:22;27.30;83.10
23122;DHT22;11730;51.248;22.534;2022-08-21T15:54:49;27.40;83.40
23122;DHT22;11730;51.248;22.534;2022-08-21T15:57:20;27.50;84.10
23122;DHT22;11730;51.248;22.534;2022-08-21T16:00:00;27.30;83.70
23122;DHT22;11730;51.248;22.534;2022-08-21T16:02:42;27.40;83.80
23122;DHT22;11730;51.248;22.534;2022-08-21T16:05:10;27.50;83.90
23122;DHT22;11730;51.248;22.534;2022-08-21T16:07:39;27.40;84.80
23122;DHT22;11730;51.248;22.534;2022-08-21T16:10:07;27.00;85.60
23122;DHT22;11730;51.248;22.534;2022-08-21T16:12:44;27.10;86.20
23122;DHT22;11730;51.248;22.534;2022-08-21T16:15:13;27.00;86.50
23122;DHT22;11730;51.248;22.534;2022-08-21T16:17:47;27.00;86.20
23122;DHT22;11730;51.248;22.534;2022-08-21T16:20:22;26.80;86.70
23122;DHT22;11730;51.248;22.534;2022-08-21T16:22:52;26.60;87.60
23122;DHT22;11730;51.248;22.534;2022-08-21T16:25:21;26.20;89.00
23122;DHT22;11730;51.248;22.534;2022-08-21T16:27:52;26.20;89.70
23122;DHT22;11730;51.248;22.534;2022-08-21T16:30:26;25.80;90.20
23122;DHT22;11730;51.248;22.534;2022-08-21T16:32:53;26.00;90.10
23122;DHT22;11730;51.248;22.534;2022-08-21T16:35:21;26.00;90.20
23122;DHT22;11730;51.248;22.534;2022-08-21T16:37:48;25.60;90.80
23122;DHT22;11730;51.248;22.534;2022-08-21T16:40:19;25.60;90.90
23122;DHT22;11730;51.248;22.534;2022-08-21T16:42:49;25.50;91.50
23122;DHT22;11730;51.248;22.534;2022-08-21T16:45:17;25.60;91.30
23122;DHT22;11730;51.248;22.534;2022-08-21T16:47:45;25.40;91.60
23122;DHT22;11730;51.248;22.534;2022-08-21T16:50:17;25.40;92.00
23122;DHT22;11730;51.248;22.534;2022-08-21T16:52:45;25.30;91.80
23122;DHT22;11730;51.248;22.534;2022-08-21T16:55:12;25.50;92.10
23122;DHT22;11730;51.248;22.534;2022-08-21T16:57:41;26.00;92.30
23122;DHT22;11730;51.248;22.534;2022-08-21T17:00:09;25.30;92.50
23122;DHT22;11730;51.248;22.534;2022-08-21T17:02:46;25.40;92.60
23122;DHT22;11730;51.248;22.534;2022-08-21T17:05:14;25.20;92.70
23122;DHT22;11730;51.248;22.534;2022-08-21T17:07:42;25.10;93.00
23122;DHT22;11730;51.248;22.534;2022-08-21T17:10:12;25.10;93.30
23122;DHT22;11730;51.248;22.534;2022-08-21T17:12:41;25.00;93.40
23122;DHT22;11730;51.248;22.534;2022-08-21T17:15:16;25.00;93.80
23122;DHT22;11730;51.248;22.534;2022-08-21T17:17:47;24.90;94.00